createdAt,value
2018-02-16T00:01:22.592Z,39.30
2018-02-16T00:03:51.072Z,41.90
2018-02-16T00:06:19.596Z,42.60
2018-02-16T00:08:48.141Z,36.57
2018-02-16T00:11:16.681Z,42.73
2018-02-16T00:13:45.360Z,32.23
2018-02-16T00:16:13.747Z,33.93
2018-02-16T00:18:42.275Z,33.00
2018-02-16T00:21:11.422Z,34.83
2018-02-16T00:23:39.963Z,31.67
2018-02-16T00:26:09.331Z,35.70
2018-02-16T00:28:38.037Z,31.57
2018-02-16T00:31:07.343Z,35.37
2018-02-16T00:33:36.493Z,33.00
2018-02-16T00:36:05.028Z,31.67
2018-02-16T00:38:34.323Z,32.80
2018-02-16T00:41:03.828Z,36.27
2018-02-16T00:43:33.235Z,36.50
2018-02-16T00:46:02.385Z,40.97
2018-02-16T00:48:31.034Z,43.10
2018-02-16T00:50:59.666Z,44.03
2018-02-16T00:53:28.183Z,39.03
2018-02-16T00:55:57.462Z,48.43
2018-02-16T00:58:25.990Z,50.40
2018-02-16T01:00:54.335Z,46.20
2018-02-16T01:03:23.506Z,52.30
2018-02-16T01:05:51.903Z,43.53
2018-02-16T01:08:21.333Z,37.00
2018-02-16T01:10:49.759Z,44.40
2018-02-16T01:13:18.235Z,42.83
2018-02-16T01:15:46.696Z,40.47
2018-02-16T01:18:15.326Z,40.80
2018-02-16T01:20:43.827Z,43.27
2018-02-16T01:23:12.999Z,38.70
2018-02-16T01:25:41.510Z,37.23
2018-02-16T01:28:09.887Z,34.83
2018-02-16T01:30:39.168Z,37.53
2018-02-16T01:33:09.820Z,39.50
2018-02-16T01:35:38.178Z,36.90
2018-02-16T01:38:07.377Z,30.70
2018-02-16T01:40:35.862Z,34.67
2018-02-16T01:43:04.285Z,32.73
2018-02-16T01:45:32.846Z,31.37
2018-02-16T01:48:01.397Z,43.33
2018-02-16T01:50:29.807Z,33.13
2018-02-16T01:52:58.364Z,39.17
2018-02-16T01:55:28.352Z,40.20
2018-02-16T01:57:56.744Z,35.43
2018-02-16T02:00:25.143Z,40.77
2018-02-16T02:02:54.272Z,39.00
2018-02-16T02:05:22.643Z,36.50
2018-02-16T02:07:51.031Z,32.70
2018-02-16T02:10:19.432Z,38.33
2018-02-16T02:12:47.935Z,32.77
2018-02-16T02:15:16.562Z,30.60
2018-02-16T02:17:45.081Z,33.20
2018-02-16T02:20:13.461Z,30.80
2018-02-16T02:22:43.334Z,34.63
2018-02-16T02:25:11.918Z,30.63
2018-02-16T02:27:40.294Z,34.30
2018-02-16T02:30:08.680Z,28.30
2018-02-16T02:32:37.253Z,28.83
2018-02-16T02:35:05.911Z,24.30
2018-02-16T02:37:35.119Z,25.10
2018-02-16T02:40:03.525Z,21.73
2018-02-16T02:42:31.931Z,21.80
2018-02-16T02:45:00.312Z,28.40
2018-02-16T02:47:28.756Z,30.07
2018-02-16T02:49:57.142Z,24.13
2018-02-16T02:52:25.522Z,36.63
2018-02-16T02:54:53.977Z,25.10
2018-02-16T02:57:22.353Z,24.17
2018-02-16T02:59:50.717Z,29.20
2018-02-16T03:02:19.856Z,32.33
2018-02-16T03:04:48.231Z,28.17
2018-02-16T03:07:16.596Z,32.00
2018-02-16T03:09:44.951Z,32.10
2018-02-16T03:12:14.326Z,28.30
2018-02-16T03:14:42.676Z,32.27
2018-02-16T03:17:11.520Z,31.03
2018-02-16T03:19:40.650Z,27.63
2018-02-16T03:22:09.023Z,31.93
2018-02-16T03:24:37.568Z,43.40
2018-02-16T03:27:06.695Z,34.77
2018-02-16T03:29:35.048Z,37.97
2018-02-16T03:32:03.923Z,37.93
2018-02-16T03:34:33.178Z,30.80
2018-02-16T03:37:01.561Z,36.10
2018-02-16T03:39:30.023Z,29.70
2018-02-16T03:41:58.405Z,34.60
2018-02-16T03:44:26.789Z,28.67
2018-02-16T03:46:55.299Z,35.20
2018-02-16T03:49:24.458Z,35.13
2018-02-16T03:51:52.980Z,31.10
2018-02-16T03:54:21.335Z,33.87
2018-02-16T03:56:49.718Z,33.63
2018-02-16T03:59:18.121Z,30.90
2018-02-16T04:01:47.989Z,28.63
2018-02-16T04:04:16.363Z,30.73
2018-02-16T04:06:44.722Z,40.97
2018-02-16T04:09:13.257Z,36.03
2018-02-16T04:11:41.781Z,29.83
2018-02-16T04:14:10.915Z,29.67
2018-02-16T04:16:39.378Z,32.23
2018-02-16T04:19:07.749Z,29.70
2018-02-16T04:21:36.127Z,34.50
2018-02-16T04:24:04.494Z,33.80
2018-02-16T04:26:32.855Z,42.43
2018-02-16T04:29:02.152Z,35.93
2018-02-16T04:31:31.294Z,41.70
2018-02-16T04:33:59.807Z,36.37
2018-02-16T04:36:28.168Z,35.10
2018-02-16T04:38:56.534Z,36.53
2018-02-16T04:41:24.918Z,40.03
2018-02-16T04:43:53.298Z,36.57
2018-02-16T04:46:21.671Z,35.53
2018-02-16T04:48:50.035Z,36.77
2018-02-16T04:51:18.669Z,41.73
2018-02-16T04:53:47.032Z,34.00
2018-02-16T04:56:15.400Z,33.43
2018-02-16T04:58:43.802Z,32.17
2018-02-16T05:01:12.392Z,35.27
2018-02-16T05:03:40.764Z,36.87
2018-02-16T05:06:09.219Z,36.20
2018-02-16T05:08:37.592Z,35.60
2018-02-16T05:11:05.954Z,38.73
2018-02-16T05:13:34.483Z,35.90
2018-02-16T05:16:02.854Z,43.63
2018-02-16T05:18:31.305Z,41.17
2018-02-16T05:20:59.827Z,40.73
2018-02-16T05:23:28.266Z,31.00
2018-02-16T05:25:56.798Z,42.87
2018-02-16T05:28:26.095Z,34.03
2018-02-16T05:30:55.319Z,36.77
2018-02-16T05:33:23.869Z,31.23
2018-02-16T05:35:53.005Z,35.63
2018-02-16T05:38:22.287Z,33.90
2018-02-16T05:40:50.700Z,39.83
2018-02-16T05:43:19.800Z,34.70
2018-02-16T05:45:48.218Z,34.77
2018-02-16T05:48:17.365Z,37.93
2018-02-16T05:50:45.994Z,34.33
2018-02-16T05:53:15.134Z,32.33
2018-02-16T05:55:43.527Z,32.83
2018-02-16T05:58:11.972Z,40.50
2018-02-16T06:00:40.329Z,34.60
2018-02-16T06:03:09.567Z,36.50
2018-02-16T06:05:37.911Z,34.03
2018-02-16T06:08:07.045Z,34.57
2018-02-16T06:10:35.394Z,32.27
2018-02-16T06:13:03.797Z,34.47
2018-02-16T06:15:32.188Z,34.03
2018-02-16T06:18:00.456Z,27.23
2018-02-16T06:20:28.803Z,29.13
2018-02-16T06:22:57.192Z,36.97
2018-02-16T06:25:25.538Z,33.70
2018-02-16T06:27:54.679Z,35.73
2018-02-16T06:30:23.873Z,30.57
2018-02-16T06:32:52.307Z,28.33
2018-02-16T06:35:20.674Z,29.90
2018-02-16T06:37:49.047Z,29.40
2018-02-16T06:40:17.532Z,26.47
2018-02-16T06:42:45.921Z,32.40
2018-02-16T06:45:15.072Z,29.97
2018-02-16T06:47:43.592Z,32.93
2018-02-16T06:50:12.877Z,33.93
2018-02-16T06:52:41.275Z,36.60
2018-02-16T06:55:09.713Z,34.60
2018-02-16T06:57:38.095Z,31.43
2018-02-16T07:00:06.800Z,37.47
2018-02-16T07:02:35.331Z,30.83
2018-02-16T07:05:03.466Z,28.33
2018-02-16T07:07:31.826Z,28.93
2018-02-16T07:10:00.203Z,31.20
2018-02-16T07:12:28.544Z,35.27
2018-02-16T07:14:56.935Z,25.73
2018-02-16T07:17:25.552Z,28.00
2018-02-16T07:19:54.026Z,27.77
2018-02-16T07:22:22.390Z,27.53
2018-02-16T07:24:51.073Z,34.57
2018-02-16T07:27:19.474Z,33.67
2018-02-16T07:29:47.874Z,29.17
2018-02-16T07:32:17.011Z,24.00
2018-02-16T07:34:45.358Z,31.83
2018-02-16T07:37:14.553Z,27.60
2018-02-16T07:39:43.904Z,20.43
2018-02-16T07:42:12.263Z,34.40
2018-02-16T07:44:40.615Z,34.63
2018-02-16T07:47:09.914Z,24.90
2018-02-16T07:49:39.259Z,21.57
2018-02-16T07:52:07.778Z,29.70
2018-02-16T07:54:36.927Z,26.80
2018-02-16T07:57:05.298Z,32.33
2018-02-16T07:59:33.695Z,28.00
2018-02-16T08:02:02.088Z,19.63
2018-02-16T08:04:30.488Z,24.43
2018-02-16T08:06:59.612Z,26.93
2018-02-16T08:09:28.168Z,28.67
2018-02-16T08:11:57.295Z,22.17
2018-02-16T08:14:25.661Z,19.93
2018-02-16T08:16:54.772Z,18.80
2018-02-16T08:19:38.054Z,21.07
2018-02-16T08:22:06.534Z,24.60
2018-02-16T08:24:34.910Z,22.23
2018-02-16T08:27:03.801Z,23.67
2018-02-16T08:29:32.270Z,26.93
2018-02-16T08:34:40.944Z,22.03
2018-02-16T08:37:10.066Z,22.60
2018-02-16T08:39:38.617Z,27.43
2018-02-16T08:42:07.762Z,21.47
2018-02-16T08:44:36.281Z,24.90
2018-02-16T08:47:04.817Z,21.27
2018-02-16T08:49:33.185Z,19.80
2018-02-16T08:52:01.780Z,23.73
2018-02-16T08:54:30.225Z,20.20
2018-02-16T08:56:58.588Z,35.40
2018-02-16T08:59:27.733Z,26.63
2018-02-16T09:01:56.076Z,27.90
2018-02-16T09:04:24.462Z,25.03
2018-02-16T09:06:52.824Z,22.50
2018-02-16T09:09:21.191Z,34.37
2018-02-16T09:11:50.347Z,22.93
2018-02-16T09:14:18.726Z,29.83
2018-02-16T09:16:47.105Z,19.93
2018-02-16T09:19:15.440Z,26.40
2018-02-16T09:21:43.891Z,21.63
2018-02-16T09:24:12.237Z,27.37
2018-02-16T09:26:40.606Z,23.50
2018-02-16T09:29:08.964Z,35.60
2018-02-16T09:31:37.353Z,29.23
2018-02-16T09:34:05.894Z,24.20
2018-02-16T09:36:35.486Z,25.60
2018-02-16T09:39:03.614Z,29.17
2018-02-16T09:41:31.966Z,26.37
2018-02-16T09:44:00.357Z,28.33
2018-02-16T09:46:28.883Z,29.40
2018-02-16T09:48:57.263Z,30.67
2018-02-16T09:51:25.735Z,35.57
2018-02-16T09:53:54.107Z,27.80
2018-02-16T09:56:22.447Z,26.37
2018-02-16T09:58:50.803Z,29.00
2018-02-16T10:01:19.938Z,22.80
2018-02-16T10:03:48.442Z,31.43
2018-02-16T10:06:16.796Z,20.23
2018-02-16T10:08:45.377Z,31.83
2018-02-16T10:11:13.860Z,23.57
2018-02-16T10:13:42.240Z,26.90
2018-02-16T10:16:10.579Z,24.40
2018-02-16T10:18:39.854Z,24.00
2018-02-16T10:21:08.300Z,27.23
2018-02-16T10:23:36.871Z,26.87
2018-02-16T10:26:05.244Z,26.50
2018-02-16T10:28:33.702Z,21.17
2018-02-16T10:31:01.887Z,27.47
2018-02-16T10:33:30.231Z,19.40
2018-02-16T10:35:58.587Z,18.07
2018-02-16T10:38:27.755Z,24.63
2018-02-16T10:40:56.278Z,19.93
2018-02-16T10:43:24.634Z,22.30
2018-02-16T10:45:53.007Z,18.77
2018-02-16T10:48:21.430Z,17.30
2018-02-16T10:50:50.585Z,20.87
2018-02-16T10:53:18.936Z,23.20
2018-02-16T10:55:47.291Z,40.67
2018-02-16T10:58:16.101Z,19.17
2018-02-16T11:00:49.964Z,22.57
2018-02-16T11:03:23.885Z,21.73
2018-02-16T11:05:53.021Z,17.73
2018-02-16T11:08:26.831Z,22.30
2018-02-16T11:10:55.177Z,15.00
2018-02-16T11:13:24.590Z,18.30
2018-02-16T11:15:52.934Z,18.07
2018-02-16T11:18:21.310Z,12.20
2018-02-16T11:20:49.657Z,18.03
2018-02-16T11:23:18.037Z,15.23
2018-02-16T11:25:46.508Z,19.50
2018-02-16T11:28:15.073Z,18.10
2018-02-16T11:30:43.415Z,16.90
2018-02-16T11:33:12.778Z,13.77
2018-02-16T11:35:41.132Z,17.23
2018-02-16T11:38:09.668Z,22.40
2018-02-16T11:40:39.042Z,15.67
2018-02-16T11:43:07.663Z,14.93
2018-02-16T11:45:36.412Z,11.87
2018-02-16T11:48:04.762Z,15.10
2018-02-16T11:50:33.355Z,17.73
2018-02-16T11:53:01.724Z,15.77
2018-02-16T11:55:30.059Z,13.50
2018-02-16T11:57:59.438Z,14.43
2018-02-16T12:00:27.788Z,14.00
2018-02-16T12:02:56.230Z,14.20
2018-02-16T12:05:25.332Z,12.50
2018-02-16T12:07:54.512Z,17.53
2018-02-16T12:10:23.666Z,16.57
2018-02-16T12:12:52.431Z,10.53
2018-02-16T12:15:21.058Z,16.50
2018-02-16T12:17:49.419Z,14.20
2018-02-16T12:20:17.780Z,12.13
2018-02-16T12:22:46.163Z,14.87
2018-02-16T12:25:14.542Z,16.27
2018-02-16T12:27:42.892Z,14.90
2018-02-16T12:30:11.959Z,8.70
2018-02-16T12:32:41.076Z,18.20
2018-02-16T12:35:10.221Z,11.67
2018-02-16T12:37:38.585Z,7.03
2018-02-16T12:40:06.947Z,8.77
2018-02-16T12:42:35.374Z,10.60
2018-02-16T12:45:04.558Z,13.10
2018-02-16T12:47:33.883Z,16.63
2018-02-16T12:50:03.009Z,7.40
2018-02-16T12:52:31.433Z,14.33
2018-02-16T12:54:59.788Z,11.00
2018-02-16T12:57:28.171Z,10.03
2018-02-16T12:59:56.531Z,16.03
2018-02-16T13:02:24.895Z,12.70
2018-02-16T13:04:53.827Z,12.20
2018-02-16T13:07:22.190Z,16.67
2018-02-16T13:09:50.880Z,14.87
2018-02-16T13:12:19.244Z,12.70
2018-02-16T13:14:47.890Z,15.33
2018-02-16T13:17:17.014Z,13.40
2018-02-16T13:19:45.474Z,9.37
2018-02-16T13:22:14.700Z,11.53
2018-02-16T13:24:43.110Z,12.40
2018-02-16T13:27:11.555Z,9.57
2018-02-16T13:29:40.205Z,9.43
2018-02-16T13:32:09.462Z,7.70
2018-02-16T13:34:37.850Z,12.90
2018-02-16T13:37:06.210Z,11.20
2018-02-16T13:39:34.574Z,8.60
2018-02-16T13:42:02.925Z,10.73
2018-02-16T13:44:32.069Z,11.40
2018-02-16T13:47:00.504Z,8.03
2018-02-16T13:49:29.729Z,7.13
2018-02-16T13:51:58.131Z,9.37
2018-02-16T13:54:26.509Z,9.53
2018-02-16T13:56:54.853Z,7.20
2018-02-16T13:59:23.210Z,10.83
2018-02-16T14:01:51.657Z,7.23
2018-02-16T14:04:20.310Z,11.83
2018-02-16T14:06:48.652Z,7.80
2018-02-16T14:09:17.780Z,9.60
2018-02-16T14:11:46.276Z,8.67
2018-02-16T14:14:14.633Z,12.10
2018-02-16T14:16:42.987Z,13.17
2018-02-16T14:19:11.326Z,6.70
2018-02-16T14:21:39.743Z,12.03
2018-02-16T14:24:08.290Z,9.57
2018-02-16T14:26:36.754Z,14.83
2018-02-16T14:29:05.283Z,9.50
2018-02-16T14:31:34.402Z,11.53
2018-02-16T14:34:02.756Z,8.13
2018-02-16T14:36:32.099Z,9.03
2018-02-16T14:39:00.736Z,11.13
2018-02-16T14:41:29.879Z,7.43
2018-02-16T14:43:58.406Z,10.57
2018-02-16T14:46:27.535Z,9.20
2018-02-16T14:48:55.927Z,9.83
2018-02-16T14:51:24.296Z,11.17
2018-02-16T14:53:52.682Z,10.57
2018-02-16T14:56:21.048Z,8.67
2018-02-16T14:58:49.670Z,9.30
2018-02-16T15:01:18.031Z,11.00
2018-02-16T15:03:46.401Z,11.13
2018-02-16T15:06:14.747Z,9.97
2018-02-16T15:08:43.163Z,7.33
2018-02-16T15:11:11.794Z,11.93
2018-02-16T15:13:41.036Z,10.73
2018-02-16T15:16:09.481Z,10.03
2018-02-16T15:18:38.767Z,12.90
2018-02-16T15:21:07.891Z,8.63
2018-02-16T15:23:36.241Z,14.37
2018-02-16T15:26:05.374Z,8.20
2018-02-16T15:28:33.717Z,9.60
2018-02-16T15:31:02.859Z,11.73
2018-02-16T15:33:31.389Z,13.20
2018-02-16T15:36:00.555Z,9.87
2018-02-16T15:38:28.902Z,5.90
2018-02-16T15:40:57.344Z,11.97
2018-02-16T15:43:26.611Z,15.37
2018-02-16T15:45:55.324Z,8.13
2018-02-16T15:48:24.466Z,9.57
2018-02-16T15:50:52.855Z,9.93
2018-02-16T15:53:21.191Z,13.57
2018-02-16T15:55:50.352Z,9.93
2018-02-16T15:58:18.826Z,14.07
2018-02-16T16:00:47.186Z,8.53
2018-02-16T16:03:15.537Z,18.70
2018-02-16T16:05:43.974Z,11.50
2018-02-16T16:08:12.322Z,11.23
2018-02-16T16:10:40.716Z,8.83
2018-02-16T16:13:09.373Z,11.77
2018-02-16T16:15:37.773Z,9.03
2018-02-16T16:18:06.246Z,8.13
2018-02-16T16:20:34.596Z,9.33
2018-02-16T16:23:03.301Z,16.20
2018-02-16T16:25:31.645Z,9.57
2018-02-16T16:27:59.748Z,9.63
2018-02-16T16:30:28.406Z,9.67
2018-02-16T16:32:57.698Z,7.50
2018-02-16T16:35:26.825Z,11.07
2018-02-16T16:37:55.361Z,10.90
2018-02-16T16:40:24.483Z,14.13
2018-02-16T16:42:52.890Z,6.47
2018-02-16T16:45:21.248Z,9.63
2018-02-16T16:47:49.600Z,16.70
2018-02-16T16:50:18.709Z,9.50
2018-02-16T16:52:47.090Z,6.47
2018-02-16T16:55:15.530Z,8.60
2018-02-16T16:57:44.031Z,8.20
2018-02-16T17:00:13.323Z,15.07
2018-02-16T17:02:42.590Z,12.70
2018-02-16T17:05:10.962Z,11.83
2018-02-16T17:07:39.330Z,17.20
2018-02-16T17:10:07.708Z,7.77
2018-02-16T17:12:36.231Z,15.27
2018-02-16T17:15:04.331Z,8.80
2018-02-16T17:17:32.725Z,13.80
2018-02-16T17:20:01.127Z,11.20
2018-02-16T17:22:29.515Z,10.37
2018-02-16T17:24:57.887Z,13.60
2018-02-16T17:27:26.854Z,14.87
2018-02-16T17:29:55.228Z,14.60
2018-02-16T17:32:23.889Z,9.97
2018-02-16T17:34:53.048Z,7.20
2018-02-16T17:37:21.443Z,10.73
2018-02-16T17:39:49.801Z,11.90
2018-02-16T17:42:18.215Z,9.30
2018-02-16T17:44:47.349Z,10.37
2018-02-16T17:47:15.727Z,10.80
2018-02-16T17:49:43.930Z,8.50
2018-02-16T17:52:12.315Z,10.80
2018-02-16T17:54:40.683Z,11.80
2018-02-16T17:57:09.055Z,11.33
2018-02-16T17:59:37.581Z,6.73
2018-02-16T18:02:06.931Z,8.00
2018-02-16T18:04:35.444Z,6.17
2018-02-16T18:07:05.340Z,7.73
2018-02-16T18:09:33.807Z,9.13
2018-02-16T18:12:02.187Z,6.23
2018-02-16T18:14:30.567Z,7.50
2018-02-16T18:16:59.044Z,9.30
2018-02-16T18:19:27.402Z,10.90
2018-02-16T18:21:55.787Z,8.97
2018-02-16T18:24:24.263Z,12.10
2018-02-16T18:26:52.623Z,10.17
2018-02-16T18:29:21.168Z,9.83
2018-02-16T18:31:49.608Z,12.53
2018-02-16T18:34:18.116Z,15.73
2018-02-16T18:36:46.467Z,9.70
2018-02-16T18:39:15.073Z,11.00
2018-02-16T18:41:43.562Z,9.63
2018-02-16T18:44:11.942Z,16.50
2018-02-16T18:46:41.164Z,23.30
2018-02-16T18:49:10.509Z,20.83
2018-02-16T18:51:38.923Z,21.90
2018-02-16T18:54:07.313Z,12.13
2018-02-16T18:56:36.478Z,12.33
2018-02-16T18:59:04.848Z,16.23
2018-02-16T19:01:33.264Z,14.90
2018-02-16T19:04:01.683Z,21.83
2018-02-16T19:06:30.046Z,18.13
2018-02-16T19:08:58.583Z,11.87
2018-02-16T19:11:26.945Z,11.87
2018-02-16T19:13:55.316Z,14.40
2018-02-16T19:16:23.700Z,14.63
2018-02-16T19:18:52.085Z,10.90
2018-02-16T19:21:20.130Z,14.40
2018-02-16T19:23:48.509Z,11.80
2018-02-16T19:26:17.162Z,14.40
2018-02-16T19:28:46.326Z,20.50
2018-02-16T19:31:14.772Z,17.27
2018-02-16T19:33:43.153Z,13.83
2018-02-16T19:36:11.521Z,10.97
2018-02-16T19:38:40.161Z,16.60
2018-02-16T19:41:08.564Z,26.63
2018-02-16T19:43:37.098Z,16.40
2018-02-16T19:46:05.652Z,24.00
2018-02-16T19:48:34.138Z,15.33
2018-02-16T19:51:02.593Z,14.37
2018-02-16T19:53:30.961Z,15.80
2018-02-16T19:56:00.314Z,13.70
2018-02-16T19:58:28.687Z,9.60
2018-02-16T20:00:57.051Z,9.37
2018-02-16T20:03:25.423Z,12.60
2018-02-16T20:05:53.801Z,13.40
2018-02-16T20:08:22.160Z,17.63
2018-02-16T20:10:50.543Z,13.87
2018-02-16T20:13:18.920Z,19.87
2018-02-16T20:15:47.427Z,14.13
2018-02-16T20:18:15.817Z,13.13
2018-02-16T20:20:44.336Z,15.07
2018-02-16T20:23:13.491Z,11.50
2018-02-16T20:25:41.885Z,16.90
2018-02-16T20:28:10.337Z,14.70
2018-02-16T20:30:39.396Z,20.10
2018-02-16T20:33:08.679Z,18.40
2018-02-16T20:35:37.059Z,23.70
2018-02-16T20:38:06.349Z,24.70
2018-02-16T20:40:34.739Z,31.43
2018-02-16T20:43:03.892Z,19.10
2018-02-16T20:45:32.925Z,18.60
2018-02-16T20:48:02.107Z,22.63
2018-02-16T20:50:30.494Z,23.13
2018-02-16T20:52:59.716Z,23.40
2018-02-16T20:55:28.848Z,21.07
2018-02-16T20:57:57.253Z,22.17
2018-02-16T21:00:25.626Z,25.10
2018-02-16T21:02:53.821Z,23.40
2018-02-16T21:05:22.348Z,20.37
2018-02-16T21:07:50.907Z,25.20
2018-02-16T21:10:19.527Z,25.20
2018-02-16T21:12:47.908Z,18.60
2018-02-16T21:15:16.398Z,17.63
2018-02-16T21:17:45.142Z,21.13
2018-02-16T21:20:13.501Z,25.20
2018-02-16T21:22:42.659Z,14.40
2018-02-16T21:25:11.033Z,15.40
2018-02-16T21:27:39.425Z,13.83
2018-02-16T21:30:07.839Z,17.00
2018-02-16T21:32:36.269Z,15.37
2018-02-16T21:35:04.680Z,14.23
2018-02-16T21:37:33.847Z,15.83
2018-02-16T21:40:02.227Z,18.33
2018-02-16T21:42:30.625Z,20.73
2018-02-16T21:44:59.059Z,14.90
2018-02-16T21:47:27.762Z,12.47
2018-02-16T21:49:56.255Z,19.47
2018-02-16T21:52:24.763Z,19.67
2018-02-16T21:54:54.016Z,16.60
2018-02-16T21:57:23.355Z,13.83
2018-02-16T21:59:51.745Z,18.13
2018-02-16T22:02:21.084Z,18.63
2018-02-16T22:04:49.472Z,15.50
2018-02-16T22:07:17.920Z,24.10
2018-02-16T22:09:46.612Z,21.10
2018-02-16T22:12:15.122Z,18.17
2018-02-16T22:14:43.540Z,16.70
2018-02-16T22:17:11.915Z,25.80
2018-02-16T22:19:40.344Z,20.10
2018-02-16T22:22:08.910Z,25.93
2018-02-16T22:24:37.468Z,23.27
2018-02-16T22:27:06.768Z,24.10
2018-02-16T22:29:35.919Z,25.13
2018-02-16T22:32:04.313Z,19.57
2018-02-16T22:34:32.710Z,21.60
2018-02-16T22:37:01.087Z,22.77
2018-02-16T22:39:29.452Z,17.60
2018-02-16T22:41:57.932Z,23.23
2018-02-16T22:44:26.303Z,26.87
2018-02-16T22:46:54.695Z,22.53
2018-02-16T22:49:22.897Z,20.63
2018-02-16T22:51:52.052Z,23.97
2018-02-16T22:54:20.476Z,19.70
2018-02-16T22:56:49.619Z,17.37
2018-02-16T22:59:17.983Z,22.13
2018-02-16T23:01:46.360Z,28.27
2018-02-16T23:04:14.853Z,22.10
2018-02-16T23:06:43.237Z,19.03
2018-02-16T23:09:11.617Z,17.70
2018-02-16T23:11:40.000Z,17.37
2018-02-16T23:14:08.368Z,17.80
2018-02-16T23:16:37.420Z,14.90
2018-02-16T23:19:06.561Z,21.67
2018-02-16T23:21:34.931Z,19.27
2018-02-16T23:24:03.320Z,22.30
2018-02-16T23:26:31.782Z,18.30
2018-02-16T23:29:00.189Z,22.83
2018-02-16T23:31:28.549Z,18.70
2018-02-16T23:33:57.835Z,22.60
2018-02-16T23:36:26.197Z,20.40
2018-02-16T23:38:54.564Z,25.47
2018-02-16T23:41:22.917Z,16.87
2018-02-16T23:43:51.253Z,17.40
2018-02-16T23:46:20.645Z,16.90
2018-02-16T23:48:49.797Z,27.93
2018-02-16T23:51:18.205Z,21.23
2018-02-16T23:53:46.599Z,27.53
2018-02-16T23:56:15.031Z,17.87
2018-02-16T23:58:43.424Z,14.33
